Amity, North Carolina
Current Conditions -  °F | °C
As of 10:15 PM on Tuesday 25 Nov 2014 (Local Time) from KRUQ Reporting Station
Light Rain Light Rain  
Wind Chill: 49°   Ceiling: 7000
Heat Index: 49°   Visibility: 10mi
Dew Point: 45°   Wind: 0mph
Humidity: 87%   Direction: NA
Pressure: 30.07"   Gusts: NA
Location:  35.7427°N, 80.712°W
Report Text: KRUQ 260315Z AUTO 00000KT 10SM -RA SCT024 BKN070 OVC080 09/07 A3007 RMK AO2 T00930073
Loading
Personal Weather Stations






























Interactive Weather Map New forecast layout! Learn more

10-Day Weather Forecast

Advertisements
Track Severe Weather on mobile